CHIUDI BANNER

Seguici su twitter Seguici su facebook
LIVE Streaming HD
Get Adobe Flash player
Animazione Masse d'Aria e Nubi
satellite e T nubi
DNA SURF SHOP
Consigli pubblicitari di Google
Dati meteo stazione (refresh automatico ogni minuto)
Latina VENTO: VELOCITÀ   PIOGGIA: QTA GIORNO TEMPERATURA: ATTUALE
SPOT: Latina lido
(Hotel Tirreno) Posizione su Googlemap: Latitudine 41.41 Longitudine 12.84
RAFFICA MASSIMA: QTA MENSILE: MASSIMA:
VELOCITÀ MEDIA: QTA ANNUALE: MINIMA:
DIREZIONE: UMIDITÀ: WIND CHILL:
TIPO: DEW POINT:
BEAUFORT: PRESSIONE:
I nostri partner
Latina nelle ultime ore
Applica filtri in visualizzazione Intervallo delle letture nelle ultime

Ora Direzione Vento Velocita' Vento Media Vento Raffica Max. Temperatura Wind Chill Pioggia Pressione
19:19:25263 °(W)8.2 Kts7.3 Kts13.4 Kts25.1 °C22.7 °C0 mm1008 Hpa
19:14:07263 °(W)8.2 Kts8.2 Kts13.4 Kts24.9 °C22.4 °C0 mm1008 Hpa
19:09:52265 °(W)6.4 Kts7.3 Kts13.4 Kts25.1 °C22.8 °C0 mm1008.1 Hpa
19:04:32263 °(W)8.2 Kts6.4 Kts13.4 Kts25.1 °C22.9 °C0 mm1008 Hpa
18:59:13269 °(W)7.3 Kts7.3 Kts13.4 Kts25 °C22.6 °C0 mm1008 Hpa
18:54:56268 °(W)5.6 Kts7.3 Kts13.4 Kts24.7 °C22.4 °C0 mm1008 Hpa
18:49:06270 °(W)8.2 Kts8.2 Kts13.4 Kts24.7 °C22.1 °C0 mm1008 Hpa
18:44:42267 °(W)9 Kts9 Kts13.4 Kts24.7 °C21.7 °C0 mm1008 Hpa
18:39:27271 °(W)11.6 Kts9 Kts13.4 Kts24.7 °C21.7 °C0 mm1007.7 Hpa
18:33:41264 °(W)9 Kts7.3 Kts13.4 Kts24.8 °C22.2 °C0 mm1007.8 Hpa
18:29:24266 °(W)7.3 Kts8.2 Kts13.4 Kts24.7 °C22 °C0 mm1007.8 Hpa
18:24:05272 °(W)6.4 Kts8.2 Kts13.4 Kts24.6 °C21.9 °C0 mm1007.8 Hpa
18:19:51273 °(W)11.6 Kts9 Kts13.4 Kts24.5 °C21.6 °C0 mm1007.9 Hpa
18:14:30272 °(W)7.3 Kts8.2 Kts13.4 Kts24.5 °C21.8 °C0 mm1007.9 Hpa
18:09:09266 °(W)9.9 Kts8.2 Kts13.4 Kts24.7 °C22.1 °C0 mm1007.9 Hpa
18:04:54257 °(WSW)7.3 Kts8.2 Kts13.4 Kts24.7 °C22.1 °C0 mm1007.9 Hpa
17:59:27256 °(WSW)9 Kts9 Kts13.4 Kts24.9 °C22.1 °C0 mm1007.7 Hpa
17:54:10263 °(W)9 Kts9 Kts13.4 Kts24.9 °C22.2 °C0 mm1007.9 Hpa
17:49:52257 °(WSW)9 Kts9 Kts13.4 Kts25.1 °C22.4 °C0 mm1007.9 Hpa
17:43:45263 °(W)8.2 Kts9 Kts13.4 Kts25.1 °C22.4 °C0 mm1007.9 Hpa
17:39:16261 °(W)9 Kts8.2 Kts13.4 Kts24.9 °C22.4 °C0 mm1008 Hpa
17:34:52265 °(W)9 Kts8.2 Kts13.4 Kts25.1 °C22.5 °C0 mm1007.9 Hpa
17:29:30267 °(W)7.3 Kts9 Kts13.4 Kts24.9 °C22.2 °C0 mm1008 Hpa
17:24:11264 °(W)9 Kts9 Kts13.4 Kts24.7 °C21.7 °C0 mm1008 Hpa